TimeCEST,TemperatureF,Dew PointF,Humidity,Sea Level PressureIn,VisibilityMPH,Wind Direction,Wind SpeedMPH,Gust SpeedMPH,PrecipitationIn,Events,Conditions,WindDirDegrees,DateUTC
12:00 AM,66.2,62.6,88,30.15,-9999.0,Variable,1.2,-,N/A,,Clear,0,2012-10-01 22:00:00
12:30 AM,64.4,62.6,94,30.15,-9999.0,Calm,Calm,-,N/A,,Clear,0,2012-10-01 22:30:00
1:00 AM,64.4,62.6,94,30.15,-9999.0,Calm,Calm,-,N/A,,Clear,0,2012-10-01 23:00:00
1:30 AM,62.6,60.8,94,30.15,-9999.0,Variable,2.3,-,N/A,,Clear,0,2012-10-01 23:30:00
2:00 AM,63,59,83,30.17,12,WNW,3.5,,,,,300,2012-10-02 00:00:00
2:00 AM,62.6,60.8,94,30.15,-9999.0,WNW,3.5,-,N/A,,Clear,290,2012-10-02 00:00:00
2:30 AM,62.6,62.6,100,30.15,-9999.0,Variable,2.3,-,N/A,,Clear,0,2012-10-02 00:30:00
3:00 AM,64.4,60.8,88,30.15,-9999.0,Variable,1.2,-,N/A,,Clear,0,2012-10-02 01:00:00
3:30 AM,62.6,60.8,94,30.15,-9999.0,West,5.8,-,N/A,,Clear,270,2012-10-02 01:30:00
4:00 AM,62.6,60.8,94,30.15,-9999.0,West,5.8,-,N/A,,Clear,270,2012-10-02 02:00:00
4:30 AM,62.6,59.0,88,30.12,-9999.0,Variable,1.2,-,N/A,,Clear,0,2012-10-02 02:30:00
5:00 AM,60.8,59.0,94,30.12,-9999.0,WSW,4.6,-,N/A,,Clear,240,2012-10-02 03:00:00
5:30 AM,60.8,59.0,94,30.12,-9999.0,WSW,5.8,-,N/A,,Clear,250,2012-10-02 03:30:00
6:00 AM,62.6,59.0,88,30.12,-9999.0,WSW,6.9,-,N/A,,Clear,250,2012-10-02 04:00:00
6:30 AM,60.8,59.0,94,30.12,-9999.0,WSW,5.8,-,N/A,,Clear,250,2012-10-02 04:30:00
7:30 AM,60.8,57.2,88,30.12,-9999.0,WSW,5.8,-,N/A,,Clear,250,2012-10-02 05:30:00
8:00 AM,60,54,76,30.14,12,West,4.6,,,,Clear,260,2012-10-02 06:00:00
8:00 AM,60.8,57.2,88,30.12,-9999.0,West,4.6,-,N/A,,Clear,260,2012-10-02 06:00:00
8:30 AM,60.8,57.2,88,30.12,-9999.0,West,6.9,-,N/A,,Clear,260,2012-10-02 06:30:00
9:00 AM,62.6,57.2,82,30.15,-9999.0,Variable,1.2,-,N/A,,Clear,0,2012-10-02 07:00:00
9:30 AM,68.0,57.2,68,30.15,-9999.0,SW,4.6,-,N/A,,Clear,230,2012-10-02 07:30:00
10:00 AM,71.6,57.2,60,30.15,-9999.0,SW,3.5,-,N/A,,Clear,230,2012-10-02 08:00:00
10:30 AM,73.4,59.0,61,30.15,-9999.0,Variable,2.3,-,N/A,,Clear,0,2012-10-02 08:30:00
11:00 AM,77.0,57.2,50,30.18,-9999.0,Variable,1.2,-,N/A,,Clear,0,2012-10-02 09:00:00
11:30 AM,77.0,60.8,57,30.18,-9999.0,East,3.5,-,N/A,,Clear,100,2012-10-02 09:30:00
12:00 PM,77.0,59.0,54,30.18,-9999.0,East,4.6,-,N/A,,Clear,80,2012-10-02 10:00:00
12:30 PM,77.0,59.0,54,30.18,-9999.0,East,5.8,-,N/A,,Clear,80,2012-10-02 10:30:00
1:00 PM,77.0,60.8,57,30.18,-9999.0,East,8.1,-,N/A,,Clear,90,2012-10-02 11:00:00
1:30 PM,77.0,60.8,57,30.15,6.2,East,8.1,-,N/A,,Partly Cloudy,80,2012-10-02 11:30:00
2:00 PM,79,56,34,30.16,12,South,4.6,,,,Scattered Clouds,180,2012-10-02 12:00:00
2:00 PM,78.8,59.0,51,30.15,6.2,Variable,4.6,-,N/A,,Partly Cloudy,0,2012-10-02 12:00:00
2:30 PM,80.6,57.2,45,30.15,6.2,South,4.6,-,N/A,,Partly Cloudy,190,2012-10-02 12:30:00
3:00 PM,80.6,60.8,51,30.12,6.2,South,6.9,-,N/A,,Partly Cloudy,170,2012-10-02 13:00:00
3:30 PM,78.8,62.6,57,30.12,6.2,SSE,6.9,-,N/A,,Partly Cloudy,160,2012-10-02 13:30:00
4:00 PM,78.8,59.0,51,30.12,6.2,South,5.8,-,N/A,,Partly Cloudy,190,2012-10-02 14:00:00
5:00 PM,78.8,57.2,47,30.12,-9999.0,South,8.1,-,N/A,,Clear,170,2012-10-02 15:00:00
5:30 PM,78.8,59.0,51,30.12,-9999.0,SSE,4.6,-,N/A,,Clear,160,2012-10-02 15:30:00
6:00 PM,77.0,59.0,54,30.12,-9999.0,SSE,3.5,-,N/A,,Clear,150,2012-10-02 16:00:00
7:00 PM,75.2,60.8,61,30.12,-9999.0,Variable,2.3,-,N/A,,Clear,0,2012-10-02 17:00:00
7:30 PM,75.2,62.6,65,30.12,-9999.0,Variable,1.2,-,N/A,,Clear,0,2012-10-02 17:30:00
8:00 PM,73,59,53,30.14,16,Calm,Calm,,,,Clear,,2012-10-02 18:00:00
8:00 PM,73.4,62.6,69,30.12,-9999.0,Calm,Calm,-,N/A,,Clear,0,2012-10-02 18:00:00
8:30 PM,71.6,62.6,73,30.15,-9999.0,Calm,Calm,-,N/A,,Clear,0,2012-10-02 18:30:00
9:00 PM,71.6,62.6,73,30.15,-9999.0,Calm,Calm,-,N/A,,Clear,0,2012-10-02 19:00:00
9:30 PM,69.8,62.6,78,30.15,-9999.0,Calm,Calm,-,N/A,,Clear,0,2012-10-02 19:30:00
10:00 PM,69.8,62.6,78,30.15,-9999.0,Calm,Calm,-,N/A,,Clear,0,2012-10-02 20:00:00
10:30 PM,69.8,64.4,83,30.15,-9999.0,Calm,Calm,-,N/A,,Clear,0,2012-10-02 20:30:00
11:00 PM,69.8,64.4,83,30.15,-9999.0,Calm,Calm,-,N/A,,Clear,0,2012-10-02 21:00:00
11:30 PM,69.8,64.4,83,30.15,-9999.0,Calm,Calm,-,N/A,,Clear,0,2012-10-02 21:30:00